Time;durP1;ratioP1;P1;durP2;ratioP2;P2;SDS_P1;SDS_P2;PMS_P1;PMS_P2;Temp;Humidity;BMP_temperature;BMP_pressure;BME280_temperature;BME280_humidity;BME280_pressure;Samples;Min_cycle;Max_cycle;Signal;HPM_P1;HPM_P2
2022/11/04 00:02:22;;;;;;;34.90;19.32;;;;;;;7.38;100.00;98349.59;2143725;82;21064;-86
2022/11/04 00:05:23;;;;;;;35.00;19.85;;;;;;;7.34;100.00;98333.99;2176170;82;20993;-85
2022/11/04 00:08:23;;;;;;;30.27;18.00;;;;;;;7.34;100.00;98337.41;2171907;80;20930;-85
2022/11/04 00:14:43;;;;;;;37.58;22.90;;;;;;;7.35;100.00;98336.92;2145383;81;21079;-86
2022/11/04 00:17:44;;;;;;;32.78;19.95;;;;;;;7.36;100.00;98334.14;2164073;81;20993;-86
2022/11/04 00:30:44;;;;;;;38.45;22.73;;;;;;;7.44;100.00;98332.49;2167736;81;21492;-84
2022/11/04 00:33:45;;;;;;;28.55;17.90;;;;;;;7.44;100.00;98342.91;2166397;81;20947;-86
2022/11/04 00:36:45;;;;;;;33.90;21.77;;;;;;;7.48;100.00;98338.98;2089714;84;21687;-86
2022/11/04 00:39:46;;;;;;;29.32;18.65;;;;;;;7.50;100.00;98337.00;2160891;81;21025;-85
2022/11/04 00:42:47;;;;;;;32.05;20.70;;;;;;;7.52;100.00;98329.36;2159051;82;20947;-84
2022/11/04 00:45:48;;;;;;;39.08;21.48;;;;;;;7.52;100.00;98320.74;2182249;81;20946;-86
2022/11/04 00:48:48;;;;;;;31.55;21.35;;;;;;;7.49;100.00;98326.27;2182976;81;21530;-84
2022/11/04 00:51:49;;;;;;;33.53;20.20;;;;;;;7.47;100.00;98321.73;2175642;81;20906;-86
2022/11/04 00:54:50;;;;;;;32.10;20.40;;;;;;;7.47;100.00;98326.94;2160761;81;20970;-85
2022/11/04 00:57:51;;;;;;;33.10;19.05;;;;;;;7.46;100.00;98325.31;2167853;81;21425;-85
2022/11/04 01:00:53;;;;;;;34.23;20.60;;;;;;;7.46;100.00;98322.22;2158152;82;20976;-87
2022/11/04 01:03:54;;;;;;;32.10;20.23;;;;;;;7.46;100.00;98316.20;2166122;81;21028;-84
2022/11/04 01:06:54;;;;;;;31.90;20.10;;;;;;;7.48;100.00;98314.23;2165274;81;20966;-86
2022/11/04 01:09:55;;;;;;;35.68;19.80;;;;;;;7.47;100.00;98310.81;2152079;81;20977;-86
2022/11/04 01:12:56;;;;;;;40.10;23.25;;;;;;;7.46;100.00;98300.56;2110894;83;21025;-85
2022/11/04 01:15:59;;;;;;;34.27;21.48;;;;;;;7.46;100.00;98301.87;2137380;83;21025;-85
2022/11/04 01:18:59;;;;;;;31.85;20.52;;;;;;;7.46;100.00;98294.05;2134148;83;20962;-87
2022/11/04 01:22:00;;;;;;;34.03;22.85;;;;;;;7.46;100.00;98287.54;2090724;84;21005;-86
2022/11/04 01:25:01;;;;;;;38.15;23.83;;;;;;;7.45;100.00;98291.13;2104287;84;21024;-85
2022/11/04 01:28:06;;;;;;;38.70;25.48;;;;;;;7.44;100.00;98279.91;2069646;84;20970;-86
2022/11/04 01:31:06;;;;;;;40.43;22.10;;;;;;;7.46;100.00;98294.86;2085208;84;21040;-85
2022/11/04 01:34:07;;;;;;;36.38;21.48;;;;;;;7.48;100.00;98288.98;2104837;83;20950;-86
2022/11/04 01:37:07;;;;;;;40.10;23.07;;;;;;;7.49;100.00;98284.09;2101331;84;20973;-86
2022/11/04 01:40:08;;;;;;;40.38;23.92;;;;;;;7.51;100.00;98268.31;2120835;84;21113;-85
2022/11/04 01:43:09;;;;;;;36.90;21.93;;;;;;;7.53;100.00;98271.55;2106991;83;21026;-86
2022/11/04 01:46:10;;;;;;;40.10;22.90;;;;;;;7.54;100.00;98263.56;2116252;83;21016;-82
2022/11/04 01:49:11;;;;;;;37.23;23.07;;;;;;;7.56;100.00;98259.48;2123926;83;21476;-81
2022/11/04 01:52:12;;;;;;;35.17;22.70;;;;;;;7.53;100.00;98258.53;2114854;84;21036;-87
2022/11/04 01:55:12;;;;;;;41.10;24.67;;;;;;;7.57;100.00;98262.41;2109117;84;21009;-85
2022/11/04 01:58:13;;;;;;;37.93;23.98;;;;;;;7.59;100.00;98256.06;2101475;84;20946;-86
2022/11/04 02:01:14;;;;;;;40.38;24.85;;;;;;;7.61;100.00;98254.58;2112972;84;21008;-86
2022/11/04 02:04:27;;;;;;;37.28;22.58;;;;;;;7.62;100.00;98241.88;2112425;84;20935;-86
2022/11/04 02:07:27;;;;;;;36.05;24.32;;;;;;;7.60;100.00;98242.05;2113705;84;20965;-85
2022/11/04 02:10:28;;;;;;;35.17;23.85;;;;;;;7.61;100.00;98236.34;2112722;84;21008;-86
2022/11/04 02:13:29;;;;;;;34.90;23.80;;;;;;;7.63;100.00;98244.80;2174818;80;20934;-85
2022/11/04 02:16:29;;;;;;;34.25;24.47;;;;;;;7.63;100.00;98227.36;2172715;80;20968;-85
2022/11/04 02:19:30;;;;;;;43.70;27.85;;;;;;;7.64;100.00;98225.56;2171951;80;21480;-85
2022/11/04 02:22:31;;;;;;;38.60;24.37;;;;;;;7.64;100.00;98216.45;2171081;81;20997;-85
2022/11/04 02:25:32;;;;;;;37.03;24.90;;;;;;;7.62;100.00;98204.09;2173493;81;20957;-85
2022/11/04 02:28:33;;;;;;;39.63;24.55;;;;;;;7.62;100.00;98219.23;2150492;81;20957;-84
2022/11/04 02:31:33;;;;;;;42.83;26.15;;;;;;;7.64;100.00;98211.23;2149354;81;20953;-85
2022/11/04 02:34:34;;;;;;;41.00;26.52;;;;;;;7.65;100.00;98201.13;2155803;81;21123;-85
2022/11/04 02:37:35;;;;;;;36.45;23.30;;;;;;;7.64;100.00;98206.02;2173794;81;20950;-85
2022/11/04 02:40:35;;;;;;;39.48;24.05;;;;;;;7.62;100.00;98191.88;2155312;81;21528;-85
2022/11/04 02:43:36;;;;;;;37.63;22.87;;;;;;;7.61;100.00;98184.23;2160068;81;21013;-84
2022/11/04 02:46:37;;;;;;;40.52;25.52;;;;;;;7.63;100.00;98183.56;2161370;81;20942;-85
2022/11/04 02:49:37;;;;;;;40.92;24.12;;;;;;;7.60;100.00;98170.89;2164863;81;21516;-84
2022/11/04 02:52:38;;;;;;;43.85;26.37;;;;;;;7.59;100.00;98184.41;2152440;80;20993;-85
2022/11/04 02:55:39;;;;;;;38.02;23.27;;;;;;;7.60;100.00;98179.52;2170884;81;20981;-84
2022/11/04 02:58:39;;;;;;;38.15;23.27;;;;;;;7.59;100.00;98182.27;2158166;81;20942;-83
2022/11/04 03:01:40;;;;;;;41.88;25.80;;;;;;;7.57;100.00;98173.33;2154849;81;20954;-84
2022/11/04 03:04:41;;;;;;;41.35;22.87;;;;;;;7.57;100.00;98169.91;2151996;81;21267;-85
2022/11/04 03:07:41;;;;;;;35.25;23.62;;;;;;;7.58;100.00;98167.62;2153882;81;20945;-85
2022/11/04 03:10:42;;;;;;;37.40;23.45;;;;;;;7.56;100.00;98164.39;2167023;80;20949;-85
2022/11/04 03:13:43;;;;;;;43.83;25.45;;;;;;;7.55;100.00;98162.77;2193130;80;20925;-82
2022/11/04 03:16:45;;;;;;;39.20;23.57;;;;;;;7.53;100.00;98158.23;2183608;80;21084;-86
2022/11/04 03:19:45;;;;;;;38.10;22.82;;;;;;;7.51;100.00;98155.80;2131002;83;20969;-85
2022/11/04 03:22:46;;;;;;;34.35;21.70;;;;;;;7.48;100.00;98155.32;2171528;82;21116;-85
2022/11/04 03:25:47;;;;;;;32.38;21.90;;;;;;;7.49;100.00;98169.97;2170052;82;20938;-85
2022/11/04 03:28:47;;;;;;;40.12;23.75;;;;;;;7.49;100.00;98150.42;2078437;84;21004;-85
2022/11/04 03:31:48;;;;;;;35.73;22.80;;;;;;;7.51;100.00;98158.91;2111706;83;20989;-86
2022/11/04 03:34:49;;;;;;;36.15;23.12;;;;;;;7.52;100.00;98159.22;2112303;82;20981;-84
2022/11/04 03:37:50;;;;;;;40.38;21.73;;;;;;;7.53;100.00;98159.53;2162124;81;20961;-84
2022/11/04 03:40:51;;;;;;;35.60;22.52;;;;;;;7.55;100.00;98153.16;2182611;81;21504;-85
2022/11/04 03:43:51;;;;;;;34.03;19.82;;;;;;;7.55;100.00;98153.16;2184389;81;20961;-85
2022/11/04 03:46:52;;;;;;;31.00;18.25;;;;;;;7.53;100.00;98138.20;2187557;80;20949;-84
2022/11/04 03:49:53;;;;;;;31.17;20.43;;;;;;;7.52;100.00;98147.50;2134817;83;20950;-87
2022/11/04 03:52:54;;;;;;;36.08;20.48;;;;;;;7.50;100.00;98142.47;2141548;83;21040;-86
2022/11/04 03:55:54;;;;;;;31.55;19.05;;;;;;;7.51;100.00;98135.45;2131955;83;20986;-85
2022/11/04 03:58:57;;;;;;;37.63;21.75;;;;;;;7.48;100.00;98134.48;2135898;82;20957;-86
2022/11/04 04:01:59;;;;;;;32.42;21.23;;;;;;;7.48;100.00;98134.48;2136922;83;20933;-85
2022/11/04 04:05:00;;;;;;;32.40;21.82;;;;;;;7.44;100.00;98121.50;2167929;81;21065;-84
2022/11/04 04:08:00;;;;;;;37.65;21.97;;;;;;;7.43;100.00;98132.91;2179043;80;20933;-84
2022/11/04 04:11:01;;;;;;;37.05;21.70;;;;;;;7.39;100.00;98125.91;2185119;81;20956;-85
2022/11/04 04:14:02;;;;;;;32.33;19.60;;;;;;;7.40;100.00;98130.13;2175352;82;21053;-85
2022/11/04 04:17:02;;;;;;;31.60;20.70;;;;;;;7.41;100.00;98118.27;2115169;83;21509;-85
2022/11/04 04:20:03;;;;;;;34.58;21.23;;;;;;;7.39;100.00;98113.70;2119917;83;20994;-86
2022/11/04 04:27:29;;;;;;;32.70;20.37;;;;;;;7.41;100.00;98113.55;2123489;83;20998;-85
2022/11/04 04:29:26;;;;;;;30.55;18.50;;;;;;;7.40;100.00;98111.41;2113277;83;21082;-85
2022/11/04 04:32:26;;;;;;;33.42;19.77;;;;;;;7.39;100.00;98096.77;2123337;84;20985;-85
2022/11/04 04:35:42;;;;;;;30.05;20.55;;;;;;;7.39;100.00;98096.77;2176169;82;21057;-85
2022/11/04 04:45:22;;;;;;;30.95;18.75;;;;;;;7.41;100.00;98112.25;2172688;82;21062;-83
2022/11/04 04:48:23;;;;;;;31.62;19.67;;;;;;;7.43;100.00;98106.86;2174893;82;20944;-84
2022/11/04 04:51:23;;;;;;;31.45;18.77;;;;;;;7.41;100.00;98102.64;2127986;83;20974;-86
2022/11/04 04:54:24;;;;;;;32.80;19.67;;;;;;;7.41;100.00;98107.84;2168659;82;20984;-84
2022/11/04 04:57:25;;;;;;;31.20;18.35;;;;;;;7.39;100.00;98096.77;2172497;82;20945;-85
2022/11/04 05:00:25;;;;;;;31.40;18.50;;;;;;;7.37;100.00;98089.63;2122343;83;20922;-83
2022/11/04 05:03:26;;;;;;;30.80;19.15;;;;;;;7.36;100.00;98095.82;2166312;82;21468;-86
2022/11/04 05:06:27;;;;;;;34.90;19.32;;;;;;;7.35;100.00;98092.91;2126371;83;20945;-86
2022/11/04 05:09:27;;;;;;;31.15;19.55;;;;;;;7.35;100.00;98103.32;2172733;81;21028;-86
2022/11/04 05:13:24;;;;;;;27.40;17.15;;;;;;;7.36;100.00;98089.31;2172010;81;21020;-85
2022/11/04 05:15:31;;;;;;;27.15;17.25;;;;;;;7.37;100.00;98097.94;2115536;83;21016;-86
2022/11/04 05:18:32;;;;;;;29.65;17.40;;;;;;;7.35;100.00;98099.41;2108718;84;20977;-85
2022/11/04 05:21:32;;;;;;;26.70;18.77;;;;;;;7.36;100.00;98098.92;2125031;83;22476;-85
2022/11/04 05:24:33;;;;;;;32.55;20.77;;;;;;;7.37;100.00;98101.34;2167759;81;20958;-84
2022/11/04 05:27:34;;;;;;;29.95;17.10;;;;;;;7.40;100.00;98093.67;2175072;81;20965;-85
2022/11/04 05:30:34;;;;;;;30.77;18.57;;;;;;;7.41;100.00;98094.02;2177371;82;21148;-85
2022/11/04 05:33:35;;;;;;;34.10;20.30;;;;;;;7.40;100.00;98097.58;2168118;82;20946;-84
2022/11/04 05:36:36;;;;;;;26.30;18.12;;;;;;;7.40;100.00;98091.06;2116659;83;20994;-84
2022/11/04 05:39:37;;;;;;;28.05;19.02;;;;;;;7.39;100.00;98081.63;2117448;83;20922;-85
2022/11/04 05:42:37;;;;;;;29.85;18.90;;;;;;;7.36;100.00;98079.39;2124808;83;20989;-85
2022/11/04 05:45:38;;;;;;;27.32;17.12;;;;;;;7.34;100.00;98089.17;2125400;83;20993;-84
2022/11/04 05:48:39;;;;;;;27.52;18.10;;;;;;;7.34;100.00;98091.78;2125152;83;20945;-84
2022/11/04 05:51:40;;;;;;;30.30;18.65;;;;;;;7.30;100.00;98089.19;2127860;83;21107;-83
2022/11/04 05:54:40;;;;;;;29.30;18.17;;;;;;;7.28;100.00;98073.74;2126919;83;21056;-85
2022/11/04 05:57:41;;;;;;;27.30;18.10;;;;;;;7.25;100.00;98078.00;2124878;83;21006;-86
2022/11/04 06:00:42;;;;;;;32.13;20.88;;;;;;;7.26;100.00;98087.44;2132318;83;20996;-84
2022/11/04 06:03:43;;;;;;;28.80;20.35;;;;;;;7.24;100.00;98082.89;2123074;84;20958;-89
2022/11/04 06:06:43;;;;;;;31.82;20.60;;;;;;;7.24;100.00;98078.99;2168511;82;21109;-84
2022/11/04 06:09:44;;;;;;;29.72;19.10;;;;;;;7.25;100.00;98085.81;2131141;83;20985;-85
2022/11/04 06:12:45;;;;;;;35.23;20.77;;;;;;;7.31;100.00;98078.59;2119137;84;21062;-93
2022/11/04 06:15:48;;;;;;;27.65;19.10;;;;;;;7.43;100.00;98069.09;2125802;84;21084;-91
2022/11/04 06:18:51;;;;;;;28.60;19.02;;;;;;;7.56;100.00;98075.81;2174117;82;20981;-90
2022/11/04 06:21:52;;;;;;;28.20;17.65;;;;;;;7.72;100.00;98069.66;2172471;82;20945;-88
2022/11/04 06:24:54;;;;;;;24.90;16.15;;;;;;;7.72;100.00;98060.53;2152987;82;21001;-91
2022/11/04 06:27:55;;;;;;;26.62;17.48;;;;;;;7.79;100.00;98064.06;2174094;82;20973;-88
2022/11/04 06:30:56;;;;;;;26.85;17.57;;;;;;;7.89;100.00;98059.39;2171318;82;20997;-87
2022/11/04 06:33:56;;;;;;;26.68;17.95;;;;;;;8.02;100.00;98071.80;2171397;82;20950;-86
2022/11/04 06:36:57;;;;;;;25.70;17.52;;;;;;;8.16;100.00;98070.52;2125678;83;21042;-90
2022/11/04 06:39:58;;;;;;;23.45;16.32;;;;;;;8.23;100.00;98069.31;2168991;82;20953;-86
2022/11/04 06:42:58;;;;;;;28.75;19.77;;;;;;;8.35;100.00;98062.67;2179512;82;21052;-88
2022/11/04 06:45:59;;;;;;;26.23;17.02;;;;;;;8.35;100.00;98069.69;2180299;82;21033;-89
2022/11/04 06:49:00;;;;;;;25.77;17.40;;;;;;;8.36;100.00;98064.29;2182891;82;21453;-90
2022/11/04 06:52:01;;;;;;;24.32;16.35;;;;;;;8.43;100.00;98064.38;2182624;82;20974;-88
2022/11/04 06:55:02;;;;;;;24.05;15.95;;;;;;;8.41;100.00;98066.34;2180638;82;21013;-86
2022/11/04 06:58:02;;;;;;;25.55;15.80;;;;;;;8.40;100.00;98068.14;2180919;82;21020;-84
2022/11/04 07:01:03;;;;;;;23.75;15.38;;;;;;;8.52;100.00;98064.60;2181884;82;20969;-82
2022/11/04 07:04:04;;;;;;;22.85;15.63;;;;;;;8.52;100.00;98065.41;2182882;82;21048;-82
2022/11/04 07:07:05;;;;;;;22.55;15.88;;;;;;;8.62;100.00;98065.63;2181061;82;20966;-84
2022/11/04 07:10:05;;;;;;;25.43;16.62;;;;;;;8.71;100.00;98051.47;2180222;82;20977;-87
2022/11/04 07:13:06;;;;;;;27.22;18.35;;;;;;;8.74;100.00;98045.38;2183812;80;21036;-87
2022/11/04 07:16:07;;;;;;;25.70;15.70;;;;;;;8.72;100.00;98057.00;2181404;82;20989;-86
2022/11/04 07:19:08;;;;;;;24.40;16.25;;;;;;;8.77;100.00;98052.83;2181614;80;21045;-86
2022/11/04 07:22:09;;;;;;;28.12;18.27;;;;;;;8.85;100.00;98038.86;2181954;82;21044;-91
2022/11/04 07:25:10;;;;;;;21.27;15.05;;;;;;;8.88;100.00;98039.02;2182567;80;20992;-88
2022/11/04 07:28:14;;;;;;;22.22;16.07;;;;;;;9.07;100.00;98029.27;2181791;80;20961;-91
2022/11/04 07:31:14;;;;;;;20.60;15.23;;;;;;;9.16;100.00;98024.73;2182334;80;21036;-90
2022/11/04 07:34:15;;;;;;;24.70;15.50;;;;;;;9.13;100.00;98024.58;2183539;81;21008;-90
2022/11/04 07:37:18;;;;;;;22.15;14.15;;;;;;;9.23;100.00;98030.80;2182378;82;21026;-88
2022/11/04 07:40:23;;;;;;;22.65;15.00;;;;;;;9.24;100.00;98024.60;2171925;82;23034;-90
2022/11/04 07:43:23;;;;;;;23.20;15.30;;;;;;;9.29;100.00;98009.16;2183414;80;20988;-90
2022/11/04 07:46:24;;;;;;;22.90;15.08;;;;;;;9.32;100.00;98020.03;2183044;80;20961;-92
2022/11/04 07:49:25;;;;;;;21.15;13.50;;;;;;;9.35;100.00;98014.45;2181246;80;20961;-90
2022/11/04 07:52:29;;;;;;;20.55;15.58;;;;;;;9.47;100.00;98000.86;2180548;82;21084;-90
2022/11/04 07:55:29;;;;;;;27.98;16.35;;;;;;;9.44;100.00;97992.91;2181248;80;20985;-90
2022/11/04 07:58:35;;;;;;;24.12;16.65;;;;;;;9.49;100.00;97997.05;2180870;80;21005;-89
2022/11/04 08:01:33;;;;;;;19.40;13.72;;;;;;;9.72;100.00;97986.38;2180065;82;21004;-85
2022/11/04 08:04:34;;;;;;;19.90;14.58;;;;;;;9.85;100.00;97986.94;2183079;80;21036;-85
2022/11/04 08:07:35;;;;;;;24.72;15.30;;;;;;;10.00;100.00;97982.41;2182993;82;21006;-86
2022/11/04 08:10:35;;;;;;;17.85;13.50;;;;;;;10.03;100.00;97974.17;2183069;80;21446;-89
2022/11/04 08:13:36;;;;;;;20.65;12.53;;;;;;;10.18;100.00;97978.78;2198919;80;21083;-87
2022/11/04 08:16:37;;;;;;;29.40;14.15;;;;;;;10.30;100.00;97969.09;2189519;81;20969;-87
2022/11/04 08:19:38;;;;;;;17.50;12.28;;;;;;;10.54;100.00;97973.31;2190442;81;20996;-88
2022/11/04 08:22:39;;;;;;;20.62;13.20;;;;;;;10.77;100.00;97973.45;2188518;81;20975;-89
2022/11/04 08:25:40;;;;;;;20.62;12.78;;;;;;;10.97;100.00;97965.63;2187182;81;21898;-90
2022/11/04 08:28:41;;;;;;;19.17;14.25;;;;;;;11.00;100.00;97959.50;2186608;81;21064;-91
2022/11/04 08:31:42;;;;;;;16.65;11.40;;;;;;;11.11;100.00;97972.00;2186770;81;21106;-89
2022/11/04 08:34:43;;;;;;;19.80;11.93;;;;;;;11.24;100.00;97954.15;2186976;81;21013;-90
2022/11/04 08:37:43;;;;;;;16.42;11.73;;;;;;;11.40;100.00;97963.42;2186992;81;20949;-90
2022/11/04 08:40:44;;;;;;;18.17;12.45;;;;;;;11.47;100.00;97959.50;2187589;81;21035;-87
2022/11/04 08:43:45;;;;;;;18.42;12.85;;;;;;;11.54;100.00;97947.19;2187444;81;21053;-88
2022/11/04 08:46:46;;;;;;;15.40;10.90;;;;;;;11.56;100.00;97966.14;2188829;81;21017;-87
2022/11/04 08:49:47;;;;;;;16.42;12.07;;;;;;;11.53;100.00;97952.95;2179082;81;21507;-84
2022/11/04 08:52:48;;;;;;;17.52;12.47;;;;;;;11.58;100.00;97962.30;2187678;81;20992;-86
2022/11/04 08:55:48;;;;;;;18.12;12.00;;;;;;;11.49;100.00;97956.16;2187248;81;21526;-84
2022/11/04 08:58:49;;;;;;;17.60;11.63;;;;;;;11.37;100.00;97952.05;2188542;81;20969;-84
2022/11/04 09:01:50;;;;;;;13.72;10.40;;;;;;;11.28;100.00;97963.23;2187382;81;20973;-83
2022/11/04 09:04:51;;;;;;;18.45;11.35;;;;;;;11.22;100.00;97969.27;2187472;81;21484;-83
2022/11/04 09:07:52;;;;;;;15.60;11.43;;;;;;;11.09;100.00;97948.32;2195544;80;20956;-80
2022/11/04 09:10:53;;;;;;;13.88;10.55;;;;;;;11.07;100.00;97952.45;2195279;81;20980;-81
2022/11/04 09:13:55;;;;;;;13.72;10.65;;;;;;;11.09;100.00;97948.32;2185193;81;21076;-80
2022/11/04 09:16:55;;;;;;;18.65;11.10;;;;;;;11.09;100.00;97949.63;2177853;82;21021;-80
2022/11/04 09:19:58;;;;;;;15.25;11.25;;;;;;;11.06;100.00;97948.23;2157800;82;21029;-80
2022/11/04 09:22:58;;;;;;;15.35;11.97;;;;;;;11.03;100.00;97939.44;2177796;82;20997;-87
2022/11/04 09:25:59;;;;;;;18.65;12.05;;;;;;;10.97;100.00;97946.81;2176790;82;21384;-84
2022/11/04 09:29:00;;;;;;;16.80;11.20;;;;;;;10.95;100.00;97938.83;2176818;82;21052;-87
2022/11/04 09:32:01;;;;;;;18.55;12.03;;;;;;;10.90;100.00;97946.50;2152755;82;21099;-83
2022/11/04 09:35:02;;;;;;;16.55;11.78;;;;;;;10.89;100.00;97939.65;2147195;83;21556;-86
2022/11/04 09:38:02;;;;;;;17.95;13.93;;;;;;;10.86;100.00;97939.52;2145131;83;21029;-85
2022/11/04 09:41:03;;;;;;;25.43;16.85;;;;;;;10.83;100.00;97939.42;2147637;83;20980;-84
2022/11/04 09:44:04;;;;;;;16.02;12.60;;;;;;;10.82;100.00;97937.02;2147476;83;21099;-83
2022/11/04 09:47:05;;;;;;;18.15;12.50;;;;;;;10.83;100.00;97929.45;2145681;83;21059;-84
2022/11/04 09:50:07;;;;;;;15.63;11.35;;;;;;;10.88;100.00;97933.61;2147169;83;21019;-84
2022/11/04 09:53:08;;;;;;;17.60;12.93;;;;;;;10.94;100.00;97930.67;2147365;83;21096;-83
2022/11/04 09:56:08;;;;;;;20.27;13.58;;;;;;;11.02;100.00;97928.66;2147439;83;21047;-83
2022/11/04 09:59:09;;;;;;;20.57;13.45;;;;;;;11.12;100.00;97925.64;2147483;83;21024;-83
2022/11/04 10:02:14;;;;;;;17.05;12.63;;;;;;;11.20;100.00;97924.12;2147657;83;21003;-82
2022/11/04 10:05:13;;;;;;;17.92;13.00;;;;;;;11.31;100.00;97918.27;2146804;83;21088;-84
2022/11/04 10:08:13;;;;;;;18.95;14.30;;;;;;;11.41;100.00;97912.61;2147458;83;22049;-84
2022/11/04 10:11:14;;;;;;;18.55;11.78;;;;;;;11.50;100.00;97917.14;2147269;83;21129;-88
2022/11/04 10:14:15;;;;;;;18.85;13.60;;;;;;;11.58;100.00;97918.23;2176373;81;21471;-84
2022/11/04 10:17:16;;;;;;;17.00;12.15;;;;;;;11.57;100.00;97905.63;2193124;81;21558;-83
2022/11/04 10:20:17;;;;;;;18.87;12.63;;;;;;;11.59;100.00;97910.66;2193202;81;20923;-83
2022/11/04 10:23:18;;;;;;;17.07;11.95;;;;;;;11.62;100.00;97916.83;2193218;81;21533;-85
2022/11/04 10:26:18;;;;;;;17.37;11.63;;;;;;;11.64;100.00;97917.42;2193077;81;21042;-83
2022/11/04 10:29:22;;;;;;;15.15;11.83;;;;;;;11.71;100.00;97917.41;2193299;81;20967;-85
2022/11/04 10:32:23;;;;;;;16.37;12.45;;;;;;;11.79;100.00;97915.86;2192666;81;20975;-83
2022/11/04 10:35:24;;;;;;;17.90;13.10;;;;;;;11.86;100.00;97921.92;2192971;81;21026;-82
2022/11/04 10:38:25;;;;;;;15.45;11.33;;;;;;;11.92;100.00;97921.91;2193220;81;20954;-82
2022/11/04 10:41:26;;;;;;;18.45;11.73;;;;;;;11.98;100.00;97920.77;2193243;81;21521;-81
2022/11/04 10:44:27;;;;;;;16.48;12.28;;;;;;;12.02;100.00;97923.30;2193449;81;20967;-81
2022/11/04 10:47:28;;;;;;;15.53;11.40;;;;;;;12.03;100.00;97917.83;2193261;81;21030;-81
2022/11/04 10:50:28;;;;;;;19.35;11.12;;;;;;;12.05;100.00;97920.24;2194051;81;20975;-82
2022/11/04 10:53:29;;;;;;;14.43;10.88;;;;;;;12.03;100.00;97911.78;2193686;81;21062;-83
2022/11/04 10:56:32;;;;;;;15.43;11.38;;;;;;;12.04;100.00;97909.45;2193074;81;21038;-83
2022/11/04 10:59:33;;;;;;;17.27;11.15;;;;;;;12.05;100.00;97915.00;2193339;81;20967;-85
2022/11/04 11:02:34;;;;;;;17.15;11.68;;;;;;;12.11;100.00;97901.86;2193503;81;21026;-85
2022/11/04 11:05:34;;;;;;;21.30;14.43;;;;;;;12.16;100.00;97900.73;2195766;81;20995;-83
2022/11/04 11:08:38;;;;;;;19.40;15.05;;;;;;;12.26;100.00;97896.34;2193430;81;20955;-83
2022/11/04 11:11:39;;;;;;;20.70;13.90;;;;;;;12.35;100.00;97893.78;2199016;80;21056;-86
2022/11/04 11:14:40;;;;;;;20.55;15.25;;;;;;;12.43;100.00;97896.13;2206654;80;21060;-86
2022/11/04 11:17:41;;;;;;;22.58;15.85;;;;;;;12.50;100.00;97895.59;2194753;81;21069;-89
2022/11/04 11:20:42;;;;;;;17.10;12.68;;;;;;;12.58;100.00;97887.16;2189688;81;21027;-86
2022/11/04 11:23:44;;;;;;;19.62;13.98;;;;;;;12.60;100.00;97886.44;2177247;81;20952;-86
2022/11/04 11:26:48;;;;;;;18.67;13.98;;;;;;;12.61;100.00;97877.54;2173699;82;21028;-85
2022/11/04 11:29:54;;;;;;;20.15;13.85;;;;;;;12.60;100.00;97877.25;2178313;80;20995;-86
2022/11/04 11:32:52;;;;;;;18.75;13.32;;;;;;;12.61;100.00;97874.91;2168142;82;21012;-87
2022/11/04 11:35:52;;;;;;;15.78;12.37;;;;;;;12.62;100.00;97867.33;2184814;81;21484;-87
2022/11/04 11:38:53;;;;;;;23.62;14.78;;;;;;;12.63;100.00;97867.14;2183260;81;20946;-85
2022/11/04 11:41:53;;;;;;;18.42;13.48;;;;;;;12.61;100.00;97870.97;2188332;80;20979;-87
2022/11/04 11:44:54;;;;;;;17.25;11.28;;;;;;;12.63;100.00;97863.72;2179861;82;20963;-87
2022/11/04 11:47:55;;;;;;;19.12;14.87;;;;;;;12.63;100.00;97864.52;2191278;81;21002;-88
2022/11/04 11:50:59;;;;;;;16.25;12.65;;;;;;;12.63;100.00;97863.20;2181147;81;20982;-87
2022/11/04 11:54:01;;;;;;;19.60;13.90;;;;;;;12.63;100.00;97861.09;2184846;81;21462;-88
2022/11/04 11:57:04;;;;;;;17.12;14.13;;;;;;;12.61;100.00;97853.91;2171190;81;21014;-88
2022/11/04 12:00:08;;;;;;;20.70;13.25;;;;;;;12.58;100.00;97845.95;2184403;81;21456;-85
2022/11/04 12:03:10;;;;;;;23.30;14.70;;;;;;;12.56;100.00;97849.31;2177554;81;21108;-85
2022/11/04 12:06:15;;;;;;;21.15;16.75;;;;;;;12.56;100.00;97844.56;2177926;81;21065;-84
2022/11/04 12:09:16;;;;;;;22.27;15.63;;;;;;;12.57;100.00;97846.17;2180963;81;22055;-85
2022/11/04 12:12:16;;;;;;;17.23;12.95;;;;;;;12.58;100.00;97845.16;2175988;81;21010;-85
2022/11/04 12:15:17;;;;;;;17.42;13.28;;;;;;;12.59;100.00;97840.19;2195136;80;21015;-84
2022/11/04 12:18:18;;;;;;;18.02;12.90;;;;;;;12.60;100.00;97841.80;2191030;80;20953;-84
2022/11/04 12:21:20;;;;;;;26.23;17.40;;;;;;;12.59;100.00;97842.30;2201414;80;21423;-84
2022/11/04 12:24:20;;;;;;;24.87;17.67;;;;;;;12.62;100.00;97837.96;2186077;80;21080;-84
2022/11/04 12:27:21;;;;;;;22.35;15.40;;;;;;;12.65;100.00;97831.47;2212150;80;20937;-84
2022/11/04 12:30:23;;;;;;;19.10;12.98;;;;;;;12.73;100.00;97839.09;2199868;80;21520;-86
2022/11/04 12:33:23;;;;;;;20.90;14.10;;;;;;;12.80;100.00;97834.08;2201284;80;20919;-84
2022/11/04 12:36:24;;;;;;;22.07;14.40;;;;;;;12.85;100.00;97829.99;2206311;80;21006;-85
2022/11/04 12:39:28;;;;;;;19.92;11.60;;;;;;;12.88;100.00;97834.30;2182022;81;20944;-85
2022/11/04 12:42:28;;;;;;;18.73;12.07;;;;;;;12.88;100.00;97830.35;2206378;80;21019;-80
2022/11/04 12:45:29;;;;;;;19.67;12.93;;;;;;;12.89;100.00;97829.84;2176421;81;21042;-80
2022/11/04 12:48:30;;;;;;;13.48;10.20;;;;;;;12.97;100.00;97817.23;2190429;81;21014;-82
2022/11/04 12:51:30;;;;;;;20.50;13.32;;;;;;;13.08;100.00;97813.13;2161784;80;21038;-84
2022/11/04 12:54:31;;;;;;;13.65;10.93;;;;;;;13.15;100.00;97810.41;2148262;81;21005;-85
2022/11/04 12:57:32;;;;;;;18.02;11.73;;;;;;;13.20;100.00;97814.55;2174469;82;21020;-81
2022/11/04 13:00:32;;;;;;;18.32;12.58;;;;;;;13.23;100.00;97807.02;2173807;82;21001;-85
2022/11/04 13:03:33;;;;;;;16.02;11.65;;;;;;;13.29;100.00;97800.09;2181689;82;20953;-84
2022/11/04 13:06:34;;;;;;;19.67;12.23;;;;;;;13.33;100.00;97807.82;2184557;80;20984;-83
2022/11/04 13:09:34;;;;;;;14.55;11.63;;;;;;;13.36;100.00;97810.03;2182585;82;20992;-86
2022/11/04 13:12:35;;;;;;;22.27;11.90;;;;;;;13.40;100.00;97811.19;2182656;82;20945;-86
2022/11/04 13:15:36;;;;;;;18.32;11.20;;;;;;;13.44;100.00;97804.48;2180725;82;21005;-84
2022/11/04 13:18:37;;;;;;;17.90;11.53;;;;;;;13.48;100.00;97810.09;2175588;80;21527;-84
2022/11/04 13:21:38;;;;;;;15.88;11.10;;;;;;;13.57;100.00;97808.78;2174163;80;21024;-85
2022/11/04 13:24:39;;;;;;;15.95;10.25;;;;;;;13.65;100.00;97802.70;2175403;82;21116;-84
2022/11/04 13:27:39;;;;;;;15.08;10.23;;;;;;;13.65;100.00;97807.97;2175717;82;20926;-84
2022/11/04 13:30:40;;;;;;;14.83;10.48;;;;;;;13.71;100.00;97807.58;2176007;82;21016;-84
2022/11/04 13:33:41;;;;;;;14.33;9.48;;;;;;;13.74;100.00;97805.04;2175781;82;21041;-86
2022/11/04 13:36:41;;;;;;;15.53;10.55;;;;;;;13.75;100.00;97807.95;2175962;82;21615;-87
2022/11/04 13:39:42;;;;;;;16.82;10.45;;;;;;;13.72;100.00;97807.09;2175886;82;21076;-85
2022/11/04 13:42:43;;;;;;;17.87;11.50;;;;;;;13.68;100.00;97808.03;2175480;82;21053;-85
2022/11/04 13:45:43;;;;;;;13.80;9.90;;;;;;;13.60;100.00;97798.61;2175892;82;21012;-85
2022/11/04 13:48:44;;;;;;;17.05;10.13;;;;;;;13.56;100.00;97806.66;2175861;82;21531;-84
2022/11/04 13:51:45;;;;;;;18.23;11.55;;;;;;;13.55;100.00;97810.83;2175738;82;20973;-86
2022/11/04 13:54:46;;;;;;;22.42;13.25;;;;;;;13.56;100.00;97812.44;2175814;82;21044;-84
2022/11/04 13:57:46;;;;;;;16.60;11.43;;;;;;;13.58;100.00;97812.50;2175812;82;21000;-85
2022/11/04 14:00:47;;;;;;;15.55;10.90;;;;;;;13.56;100.00;97812.44;2175930;82;20981;-84
2022/11/04 14:03:48;;;;;;;24.07;16.50;;;;;;;13.54;100.00;97811.86;2175792;82;21001;-84
2022/11/04 14:06:49;;;;;;;26.10;17.12;;;;;;;13.50;100.00;97811.48;2175828;82;21014;-84
2022/11/04 14:09:49;;;;;;;23.32;14.23;;;;;;;13.46;100.00;97820.84;2175617;82;22068;-85
2022/11/04 14:12:50;;;;;;;22.32;12.65;;;;;;;13.48;100.00;97814.04;2175939;82;20989;-85